sensor_id;sensor_type;location;lat;lon;timestamp;pressure;altitude;pressure_sealevel;temperature
15062;BMP180;7630;50.306;8.566;2023-04-07T00:00:31;97749.00;;;7.80
15062;BMP180;7630;50.306;8.566;2023-04-07T00:04:32;97746.00;;;8.00
15062;BMP180;7630;50.306;8.566;2023-04-07T00:08:33;97748.00;;;8.00
15062;BMP180;7630;50.306;8.566;2023-04-07T00:12:34;97750.00;;;8.30
15062;BMP180;7630;50.306;8.566;2023-04-07T00:16:36;97741.00;;;9.40
15062;BMP180;7630;50.306;8.566;2023-04-07T00:20:37;97733.00;;;8.90
15062;BMP180;7630;50.306;8.566;2023-04-07T00:24:38;97730.00;;;8.20
15062;BMP180;7630;50.306;8.566;2023-04-07T00:28:39;97726.00;;;8.50
15062;BMP180;7630;50.306;8.566;2023-04-07T00:32:40;97712.00;;;8.60
15062;BMP180;7630;50.306;8.566;2023-04-07T00:36:42;97721.00;;;8.40
15062;BMP180;7630;50.306;8.566;2023-04-07T00:40:43;97717.00;;;8.80
15062;BMP180;7630;50.306;8.566;2023-04-07T00:44:44;97703.00;;;8.70
15062;BMP180;7630;50.306;8.566;2023-04-07T00:48:45;97702.00;;;8.90
15062;BMP180;7630;50.306;8.566;2023-04-07T00:52:46;97699.00;;;8.00
15062;BMP180;7630;50.306;8.566;2023-04-07T00:56:48;97700.00;;;8.50
15062;BMP180;7630;50.306;8.566;2023-04-07T01:00:59;97688.00;;;9.00
15062;BMP180;7630;50.306;8.566;2023-04-07T01:05:04;97686.00;;;8.00
15062;BMP180;7630;50.306;8.566;2023-04-07T01:09:09;97686.00;;;8.50
15062;BMP180;7630;50.306;8.566;2023-04-07T01:13:15;97680.00;;;8.50
15062;BMP180;7630;50.306;8.566;2023-04-07T01:17:15;97675.00;;;8.90
15062;BMP180;7630;50.306;8.566;2023-04-07T01:21:18;97666.00;;;7.90
15062;BMP180;7630;50.306;8.566;2023-04-07T01:30:00;97662.00;;;8.90
15062;BMP180;7630;50.306;8.566;2023-04-07T01:34:03;97665.00;;;8.60
15062;BMP180;7630;50.306;8.566;2023-04-07T01:38:04;97655.00;;;8.90
15062;BMP180;7630;50.306;8.566;2023-04-07T01:42:06;97654.00;;;8.70
15062;BMP180;7630;50.306;8.566;2023-04-07T01:46:08;97645.00;;;8.80
15062;BMP180;7630;50.306;8.566;2023-04-07T01:50:10;97653.00;;;8.70
15062;BMP180;7630;50.306;8.566;2023-04-07T01:54:14;97656.00;;;9.10
15062;BMP180;7630;50.306;8.566;2023-04-07T01:58:16;97579.00;;;8.50
15062;BMP180;7630;50.306;8.566;2023-04-07T02:02:18;97650.00;;;7.60
15062;BMP180;7630;50.306;8.566;2023-04-07T02:06:26;97640.00;;;9.00
15062;BMP180;7630;50.306;8.566;2023-04-07T02:10:28;97641.00;;;8.40
15062;BMP180;7630;50.306;8.566;2023-04-07T02:14:29;97636.00;;;8.60
15062;BMP180;7630;50.306;8.566;2023-04-07T02:18:32;97641.00;;;8.50
15062;BMP180;7630;50.306;8.566;2023-04-07T02:22:34;97627.00;;;8.00
15062;BMP180;7630;50.306;8.566;2023-04-07T02:26:36;97633.00;;;8.70
15062;BMP180;7630;50.306;8.566;2023-04-07T02:30:37;97630.00;;;7.90
15062;BMP180;7630;50.306;8.566;2023-04-07T02:34:38;97632.00;;;8.80
15062;BMP180;7630;50.306;8.566;2023-04-07T02:38:39;97634.00;;;8.90
15062;BMP180;7630;50.306;8.566;2023-04-07T02:42:40;97626.00;;;7.30
15062;BMP180;7630;50.306;8.566;2023-04-07T02:46:41;97626.00;;;8.30
15062;BMP180;7630;50.306;8.566;2023-04-07T02:50:42;97628.00;;;8.30
15062;BMP180;7630;50.306;8.566;2023-04-07T02:54:43;97622.00;;;7.90
15062;BMP180;7630;50.306;8.566;2023-04-07T02:58:44;97624.00;;;7.90
15062;BMP180;7630;50.306;8.566;2023-04-07T03:02:45;97624.00;;;8.00
15062;BMP180;7630;50.306;8.566;2023-04-07T03:06:46;97628.00;;;8.50
15062;BMP180;7630;50.306;8.566;2023-04-07T03:10:48;97617.00;;;7.00
15062;BMP180;7630;50.306;8.566;2023-04-07T03:14:49;97622.00;;;7.80
15062;BMP180;7630;50.306;8.566;2023-04-07T03:18:50;97615.00;;;7.60
15062;BMP180;7630;50.306;8.566;2023-04-07T03:22:51;97610.00;;;8.40
15062;BMP180;7630;50.306;8.566;2023-04-07T03:26:52;97606.00;;;8.80
15062;BMP180;7630;50.306;8.566;2023-04-07T03:30:53;97607.00;;;7.40
15062;BMP180;7630;50.306;8.566;2023-04-07T03:34:55;97608.00;;;8.50
15062;BMP180;7630;50.306;8.566;2023-04-07T03:38:56;97593.00;;;8.20
15062;BMP180;7630;50.306;8.566;2023-04-07T03:42:58;97599.00;;;8.30
15062;BMP180;7630;50.306;8.566;2023-04-07T03:46:59;97596.00;;;9.00
15062;BMP180;7630;50.306;8.566;2023-04-07T03:51:02;97602.00;;;9.10
15062;BMP180;7630;50.306;8.566;2023-04-07T03:55:04;97602.00;;;9.50
15062;BMP180;7630;50.306;8.566;2023-04-07T03:59:05;97601.00;;;8.90
15062;BMP180;7630;50.306;8.566;2023-04-07T04:03:07;97607.00;;;8.30
15062;BMP180;7630;50.306;8.566;2023-04-07T04:07:08;97601.00;;;8.60
15062;BMP180;7630;50.306;8.566;2023-04-07T04:11:09;97605.00;;;9.30
15062;BMP180;7630;50.306;8.566;2023-04-07T04:15:10;97597.00;;;9.20
15062;BMP180;7630;50.306;8.566;2023-04-07T04:19:11;97598.00;;;8.70
15062;BMP180;7630;50.306;8.566;2023-04-07T04:23:12;97592.00;;;8.90
15062;BMP180;7630;50.306;8.566;2023-04-07T04:27:14;97591.00;;;8.40
15062;BMP180;7630;50.306;8.566;2023-04-07T04:31:16;97601.00;;;9.00
15062;BMP180;7630;50.306;8.566;2023-04-07T04:35:17;97600.00;;;9.50
15062;BMP180;7630;50.306;8.566;2023-04-07T04:39:18;97602.00;;;8.70
15062;BMP180;7630;50.306;8.566;2023-04-07T04:43:19;97617.00;;;9.50
15062;BMP180;7630;50.306;8.566;2023-04-07T04:47:20;97603.00;;;8.60
15062;BMP180;7630;50.306;8.566;2023-04-07T04:51:22;97608.00;;;9.00
15062;BMP180;7630;50.306;8.566;2023-04-07T04:55:23;97610.00;;;8.80
15062;BMP180;7630;50.306;8.566;2023-04-07T04:59:24;97620.00;;;8.80
15062;BMP180;7630;50.306;8.566;2023-04-07T05:03:27;97609.00;;;9.00
15062;BMP180;7630;50.306;8.566;2023-04-07T05:07:29;97606.00;;;8.60
15062;BMP180;7630;50.306;8.566;2023-04-07T05:11:30;97597.00;;;8.70
15062;BMP180;7630;50.306;8.566;2023-04-07T05:15:31;97614.00;;;8.50
15062;BMP180;7630;50.306;8.566;2023-04-07T05:19:32;97625.00;;;9.10
15062;BMP180;7630;50.306;8.566;2023-04-07T05:23:34;97612.00;;;9.20
15062;BMP180;7630;50.306;8.566;2023-04-07T05:27:36;97622.00;;;8.70
15062;BMP180;7630;50.306;8.566;2023-04-07T05:31:37;97613.00;;;9.10
15062;BMP180;7630;50.306;8.566;2023-04-07T05:35:40;97609.00;;;8.90
15062;BMP180;7630;50.306;8.566;2023-04-07T05:39:41;97607.00;;;9.30
15062;BMP180;7630;50.306;8.566;2023-04-07T05:43:42;97618.00;;;8.90
15062;BMP180;7630;50.306;8.566;2023-04-07T05:47:43;97612.00;;;8.80
15062;BMP180;7630;50.306;8.566;2023-04-07T05:51:44;97614.00;;;9.40
15062;BMP180;7630;50.306;8.566;2023-04-07T05:55:47;97617.00;;;8.80
15062;BMP180;7630;50.306;8.566;2023-04-07T05:59:48;97612.00;;;9.00
15062;BMP180;7630;50.306;8.566;2023-04-07T06:03:49;97614.00;;;9.20
15062;BMP180;7630;50.306;8.566;2023-04-07T06:07:51;97607.00;;;9.20
15062;BMP180;7630;50.306;8.566;2023-04-07T06:11:52;97616.00;;;9.00
15062;BMP180;7630;50.306;8.566;2023-04-07T06:15:54;97617.00;;;9.40
15062;BMP180;7630;50.306;8.566;2023-04-07T06:19:56;97616.00;;;9.70
15062;BMP180;7630;50.306;8.566;2023-04-07T06:23:57;97615.00;;;9.70
15062;BMP180;7630;50.306;8.566;2023-04-07T06:27:58;97621.00;;;10.00
15062;BMP180;7630;50.306;8.566;2023-04-07T06:31:59;97625.00;;;9.90
15062;BMP180;7630;50.306;8.566;2023-04-07T06:36:01;97613.00;;;10.00
15062;BMP180;7630;50.306;8.566;2023-04-07T06:40:02;97624.00;;;9.10
15062;BMP180;7630;50.306;8.566;2023-04-07T06:44:04;97620.00;;;9.40
15062;BMP180;7630;50.306;8.566;2023-04-07T06:48:07;97630.00;;;8.50
15062;BMP180;7630;50.306;8.566;2023-04-07T06:52:10;97563.00;;;8.90
15062;BMP180;7630;50.306;8.566;2023-04-07T06:56:11;97633.00;;;8.80
15062;BMP180;7630;50.306;8.566;2023-04-07T07:00:13;97628.00;;;9.10
15062;BMP180;7630;50.306;8.566;2023-04-07T07:04:18;97630.00;;;8.90
15062;BMP180;7630;50.306;8.566;2023-04-07T07:08:19;97641.00;;;8.20
15062;BMP180;7630;50.306;8.566;2023-04-07T07:12:20;97634.00;;;9.10
15062;BMP180;7630;50.306;8.566;2023-04-07T07:16:21;97632.00;;;8.80
15062;BMP180;7630;50.306;8.566;2023-04-07T07:20:26;97637.00;;;8.20
15062;BMP180;7630;50.306;8.566;2023-04-07T07:24:27;97641.00;;;8.80
15062;BMP180;7630;50.306;8.566;2023-04-07T07:28:29;97652.00;;;8.40
15062;BMP180;7630;50.306;8.566;2023-04-07T07:32:30;97647.00;;;9.50
15062;BMP180;7630;50.306;8.566;2023-04-07T07:36:31;97639.00;;;9.10
15062;BMP180;7630;50.306;8.566;2023-04-07T07:40:32;97648.00;;;9.10
15062;BMP180;7630;50.306;8.566;2023-04-07T07:44:33;97647.00;;;9.50
15062;BMP180;7630;50.306;8.566;2023-04-07T07:48:35;97647.00;;;8.60
15062;BMP180;7630;50.306;8.566;2023-04-07T07:52:36;97654.00;;;9.70
15062;BMP180;7630;50.306;8.566;2023-04-07T07:56:37;97656.00;;;8.60
15062;BMP180;7630;50.306;8.566;2023-04-07T08:00:38;97660.00;;;9.20
15062;BMP180;7630;50.306;8.566;2023-04-07T08:04:39;97662.00;;;7.90
15062;BMP180;7630;50.306;8.566;2023-04-07T08:08:41;97667.00;;;8.70
15062;BMP180;7630;50.306;8.566;2023-04-07T08:12:42;97673.00;;;9.60
15062;BMP180;7630;50.306;8.566;2023-04-07T08:16:44;97676.00;;;10.20
15062;BMP180;7630;50.306;8.566;2023-04-07T08:20:45;97682.00;;;9.40
15062;BMP180;7630;50.306;8.566;2023-04-07T08:24:47;97681.00;;;9.20
15062;BMP180;7630;50.306;8.566;2023-04-07T08:28:48;97689.00;;;9.60
15062;BMP180;7630;50.306;8.566;2023-04-07T08:32:51;97690.00;;;10.00
15062;BMP180;7630;50.306;8.566;2023-04-07T08:36:52;97698.00;;;10.50
15062;BMP180;7630;50.306;8.566;2023-04-07T08:41:02;97687.00;;;10.80
15062;BMP180;7630;50.306;8.566;2023-04-07T08:45:04;97692.00;;;10.60
15062;BMP180;7630;50.306;8.566;2023-04-07T08:49:10;97691.00;;;10.80
15062;BMP180;7630;50.306;8.566;2023-04-07T08:53:15;97698.00;;;10.10
15062;BMP180;7630;50.306;8.566;2023-04-07T08:57:18;97700.00;;;10.10
15062;BMP180;7630;50.306;8.566;2023-04-07T09:01:19;97699.00;;;10.20
15062;BMP180;7630;50.306;8.566;2023-04-07T09:05:21;97700.00;;;9.60
15062;BMP180;7630;50.306;8.566;2023-04-07T09:09:24;97700.00;;;8.20
15062;BMP180;7630;50.306;8.566;2023-04-07T09:13:26;97709.00;;;9.60
15062;BMP180;7630;50.306;8.566;2023-04-07T09:17:28;97711.00;;;9.90
15062;BMP180;7630;50.306;8.566;2023-04-07T09:21:50;97721.00;;;8.70
15062;BMP180;7630;50.306;8.566;2023-04-07T09:25:52;97718.00;;;9.10
15062;BMP180;7630;50.306;8.566;2023-04-07T09:29:55;97715.00;;;9.30
15062;BMP180;7630;50.306;8.566;2023-04-07T09:33:58;97722.00;;;9.40
15062;BMP180;7630;50.306;8.566;2023-04-07T09:38:01;97726.00;;;8.90
15062;BMP180;7630;50.306;8.566;2023-04-07T09:42:05;97717.00;;;9.20
15062;BMP180;7630;50.306;8.566;2023-04-07T09:46:15;97720.00;;;9.10
15062;BMP180;7630;50.306;8.566;2023-04-07T09:50:35;97728.00;;;9.60
15062;BMP180;7630;50.306;8.566;2023-04-07T09:54:38;97725.00;;;10.30
15062;BMP180;7630;50.306;8.566;2023-04-07T09:58:39;97725.00;;;9.60
15062;BMP180;7630;50.306;8.566;2023-04-07T10:02:42;97731.00;;;10.30
15062;BMP180;7630;50.306;8.566;2023-04-07T10:06:45;97732.00;;;10.70
15062;BMP180;7630;50.306;8.566;2023-04-07T10:10:47;97734.00;;;10.50
15062;BMP180;7630;50.306;8.566;2023-04-07T10:14:50;97734.00;;;10.80
15062;BMP180;7630;50.306;8.566;2023-04-07T10:18:51;97741.00;;;10.60
15062;BMP180;7630;50.306;8.566;2023-04-07T10:22:54;97736.00;;;10.20
15062;BMP180;7630;50.306;8.566;2023-04-07T10:26:59;97744.00;;;10.70
15062;BMP180;7630;50.306;8.566;2023-04-07T10:31:05;97746.00;;;10.80
15062;BMP180;7630;50.306;8.566;2023-04-07T10:35:06;97741.00;;;9.80
15062;BMP180;7630;50.306;8.566;2023-04-07T10:43:15;97768.00;;;11.70
15062;BMP180;7630;50.306;8.566;2023-04-07T10:47:17;97767.00;;;11.50
15062;BMP180;7630;50.306;8.566;2023-04-07T10:51:19;97765.00;;;11.00
15062;BMP180;7630;50.306;8.566;2023-04-07T11:04:13;97776.00;;;10.70
15062;BMP180;7630;50.306;8.566;2023-04-07T11:08:30;97783.00;;;10.80
15062;BMP180;7630;50.306;8.566;2023-04-07T11:12:22;97775.00;;;11.40
15062;BMP180;7630;50.306;8.566;2023-04-07T11:16:39;97784.00;;;11.00
15062;BMP180;7630;50.306;8.566;2023-04-07T11:20:46;97783.00;;;12.20
15062;BMP180;7630;50.306;8.566;2023-04-07T11:24:47;97793.00;;;11.60
15062;BMP180;7630;50.306;8.566;2023-04-07T11:28:54;97789.00;;;12.20
15062;BMP180;7630;50.306;8.566;2023-04-07T11:32:53;97791.00;;;11.10
15062;BMP180;7630;50.306;8.566;2023-04-07T11:36:56;97791.00;;;10.50
15062;BMP180;7630;50.306;8.566;2023-04-07T11:41:09;97794.00;;;9.70
15062;BMP180;7630;50.306;8.566;2023-04-07T11:45:04;97789.00;;;10.90
15062;BMP180;7630;50.306;8.566;2023-04-07T11:49:10;97799.00;;;11.50
15062;BMP180;7630;50.306;8.566;2023-04-07T11:53:11;97798.00;;;11.30
15062;BMP180;7630;50.306;8.566;2023-04-07T11:57:12;97801.00;;;11.60
15062;BMP180;7630;50.306;8.566;2023-04-07T12:01:14;97809.00;;;12.70
15062;BMP180;7630;50.306;8.566;2023-04-07T12:05:15;97810.00;;;12.90
15062;BMP180;7630;50.306;8.566;2023-04-07T12:09:30;97813.00;;;11.90
15062;BMP180;7630;50.306;8.566;2023-04-07T12:13:32;97811.00;;;13.00
15062;BMP180;7630;50.306;8.566;2023-04-07T12:17:33;97820.00;;;11.70
15062;BMP180;7630;50.306;8.566;2023-04-07T12:21:35;97821.00;;;10.00
15062;BMP180;7630;50.306;8.566;2023-04-07T12:25:36;97824.00;;;11.20
15062;BMP180;7630;50.306;8.566;2023-04-07T12:29:37;97813.00;;;12.20
15062;BMP180;7630;50.306;8.566;2023-04-07T12:33:38;97823.00;;;13.20
15062;BMP180;7630;50.306;8.566;2023-04-07T12:37:39;97817.00;;;12.60
15062;BMP180;7630;50.306;8.566;2023-04-07T12:41:40;97826.00;;;13.50
15062;BMP180;7630;50.306;8.566;2023-04-07T12:45:41;97824.00;;;13.20
15062;BMP180;7630;50.306;8.566;2023-04-07T12:49:42;97832.00;;;13.80
15062;BMP180;7630;50.306;8.566;2023-04-07T12:53:44;97827.00;;;14.20
15062;BMP180;7630;50.306;8.566;2023-04-07T12:57:45;97840.00;;;13.90
15062;BMP180;7630;50.306;8.566;2023-04-07T13:01:46;97839.00;;;14.70
15062;BMP180;7630;50.306;8.566;2023-04-07T13:05:49;97830.00;;;14.30
15062;BMP180;7630;50.306;8.566;2023-04-07T13:09:51;97843.00;;;12.80
15062;BMP180;7630;50.306;8.566;2023-04-07T13:13:52;97832.00;;;10.40
15062;BMP180;7630;50.306;8.566;2023-04-07T13:17:55;97832.00;;;9.70
15062;BMP180;7630;50.306;8.566;2023-04-07T13:21:56;97842.00;;;9.70
15062;BMP180;7630;50.306;8.566;2023-04-07T13:25:57;97836.00;;;9.70
15062;BMP180;7630;50.306;8.566;2023-04-07T13:29:58;97849.00;;;9.40
15062;BMP180;7630;50.306;8.566;2023-04-07T13:34:00;97835.00;;;9.00
15062;BMP180;7630;50.306;8.566;2023-04-07T13:38:02;97840.00;;;9.40
15062;BMP180;7630;50.306;8.566;2023-04-07T13:42:04;97839.00;;;9.30
15062;BMP180;7630;50.306;8.566;2023-04-07T13:46:06;97841.00;;;9.40
15062;BMP180;7630;50.306;8.566;2023-04-07T13:50:09;97843.00;;;9.90
15062;BMP180;7630;50.306;8.566;2023-04-07T13:54:10;97837.00;;;10.30
15062;BMP180;7630;50.306;8.566;2023-04-07T13:58:11;97840.00;;;9.70
15062;BMP180;7630;50.306;8.566;2023-04-07T14:02:13;97848.00;;;9.90
15062;BMP180;7630;50.306;8.566;2023-04-07T14:06:14;97839.00;;;10.00
15062;BMP180;7630;50.306;8.566;2023-04-07T14:10:15;97844.00;;;10.10
15062;BMP180;7630;50.306;8.566;2023-04-07T14:14:16;97841.00;;;10.00
15062;BMP180;7630;50.306;8.566;2023-04-07T14:18:18;97841.00;;;10.20
15062;BMP180;7630;50.306;8.566;2023-04-07T14:22:20;97841.00;;;9.60
15062;BMP180;7630;50.306;8.566;2023-04-07T14:26:21;97840.00;;;9.50
15062;BMP180;7630;50.306;8.566;2023-04-07T14:30:22;97841.00;;;9.90
15062;BMP180;7630;50.306;8.566;2023-04-07T14:34:23;97845.00;;;9.90
15062;BMP180;7630;50.306;8.566;2023-04-07T14:38:24;97844.00;;;10.70
15062;BMP180;7630;50.306;8.566;2023-04-07T14:42:25;97840.00;;;10.90
15062;BMP180;7630;50.306;8.566;2023-04-07T14:46:26;97843.00;;;9.60
15062;BMP180;7630;50.306;8.566;2023-04-07T14:50:32;97843.00;;;10.00
15062;BMP180;7630;50.306;8.566;2023-04-07T14:54:34;97853.00;;;10.20
15062;BMP180;7630;50.306;8.566;2023-04-07T14:58:35;97845.00;;;9.80
15062;BMP180;7630;50.306;8.566;2023-04-07T15:02:38;97849.00;;;9.70
15062;BMP180;7630;50.306;8.566;2023-04-07T15:06:40;97850.00;;;9.50
15062;BMP180;7630;50.306;8.566;2023-04-07T15:10:46;97861.00;;;9.30
15062;BMP180;7630;50.306;8.566;2023-04-07T15:14:49;97854.00;;;9.20
15062;BMP180;7630;50.306;8.566;2023-04-07T15:18:52;97850.00;;;9.20
15062;BMP180;7630;50.306;8.566;2023-04-07T15:22:53;97866.00;;;9.30
15062;BMP180;7630;50.306;8.566;2023-04-07T15:26:54;97867.00;;;9.90
15062;BMP180;7630;50.306;8.566;2023-04-07T15:30:55;97857.00;;;9.90
15062;BMP180;7630;50.306;8.566;2023-04-07T15:34:56;97864.00;;;9.60
15062;BMP180;7630;50.306;8.566;2023-04-07T15:39:02;97867.00;;;10.90
15062;BMP180;7630;50.306;8.566;2023-04-07T15:43:07;97868.00;;;11.30
15062;BMP180;7630;50.306;8.566;2023-04-07T15:47:10;97871.00;;;11.20
15062;BMP180;7630;50.306;8.566;2023-04-07T15:51:11;97873.00;;;11.50
15062;BMP180;7630;50.306;8.566;2023-04-07T15:55:12;97883.00;;;12.20
15062;BMP180;7630;50.306;8.566;2023-04-07T15:59:13;97869.00;;;10.70
15062;BMP180;7630;50.306;8.566;2023-04-07T16:03:15;97877.00;;;11.30
15062;BMP180;7630;50.306;8.566;2023-04-07T16:07:17;97875.00;;;9.60
15062;BMP180;7630;50.306;8.566;2023-04-07T16:11:18;97889.00;;;10.30
15062;BMP180;7630;50.306;8.566;2023-04-07T16:15:19;97873.00;;;9.80
15062;BMP180;7630;50.306;8.566;2023-04-07T16:19:23;97888.00;;;9.70
15062;BMP180;7630;50.306;8.566;2023-04-07T16:23:25;97895.00;;;10.00
15062;BMP180;7630;50.306;8.566;2023-04-07T16:27:27;97901.00;;;9.50
15062;BMP180;7630;50.306;8.566;2023-04-07T16:31:28;97894.00;;;10.70
15062;BMP180;7630;50.306;8.566;2023-04-07T16:35:29;97895.00;;;10.50
15062;BMP180;7630;50.306;8.566;2023-04-07T16:39:31;97901.00;;;10.60
15062;BMP180;7630;50.306;8.566;2023-04-07T16:43:32;97899.00;;;9.90
15062;BMP180;7630;50.306;8.566;2023-04-07T16:47:33;97898.00;;;10.30
15062;BMP180;7630;50.306;8.566;2023-04-07T16:51:35;97908.00;;;11.10
15062;BMP180;7630;50.306;8.566;2023-04-07T16:55:36;97912.00;;;10.30
15062;BMP180;7630;50.306;8.566;2023-04-07T16:59:38;97907.00;;;9.80
15062;BMP180;7630;50.306;8.566;2023-04-07T17:03:40;97916.00;;;10.30
15062;BMP180;7630;50.306;8.566;2023-04-07T17:07:41;97913.00;;;10.20
15062;BMP180;7630;50.306;8.566;2023-04-07T17:11:42;97911.00;;;11.00
15062;BMP180;7630;50.306;8.566;2023-04-07T17:15:43;97920.00;;;10.90
15062;BMP180;7630;50.306;8.566;2023-04-07T17:19:45;97920.00;;;10.90
15062;BMP180;7630;50.306;8.566;2023-04-07T17:23:46;97931.00;;;11.50
15062;BMP180;7630;50.306;8.566;2023-04-07T17:27:47;97933.00;;;10.60
15062;BMP180;7630;50.306;8.566;2023-04-07T17:31:49;97939.00;;;10.90
15062;BMP180;7630;50.306;8.566;2023-04-07T17:35:50;97941.00;;;10.90
15062;BMP180;7630;50.306;8.566;2023-04-07T17:39:51;97957.00;;;11.70
15062;BMP180;7630;50.306;8.566;2023-04-07T17:43:52;97949.00;;;10.50
15062;BMP180;7630;50.306;8.566;2023-04-07T17:47:53;97955.00;;;9.60
15062;BMP180;7630;50.306;8.566;2023-04-07T17:52:14;97954.00;;;10.20
15062;BMP180;7630;50.306;8.566;2023-04-07T17:56:16;97961.00;;;9.50
15062;BMP180;7630;50.306;8.566;2023-04-07T18:00:18;97968.00;;;9.60
15062;BMP180;7630;50.306;8.566;2023-04-07T18:04:19;97971.00;;;10.20
15062;BMP180;7630;50.306;8.566;2023-04-07T18:08:21;97975.00;;;10.10
15062;BMP180;7630;50.306;8.566;2023-04-07T18:12:22;97984.00;;;10.50
15062;BMP180;7630;50.306;8.566;2023-04-07T18:16:23;97983.00;;;10.70
15062;BMP180;7630;50.306;8.566;2023-04-07T18:20:24;97983.00;;;11.00
15062;BMP180;7630;50.306;8.566;2023-04-07T18:24:26;97994.00;;;11.20
15062;BMP180;7630;50.306;8.566;2023-04-07T18:28:27;98005.00;;;11.80
15062;BMP180;7630;50.306;8.566;2023-04-07T18:32:29;98005.00;;;11.80
15062;BMP180;7630;50.306;8.566;2023-04-07T18:36:30;98009.00;;;12.10
15062;BMP180;7630;50.306;8.566;2023-04-07T18:40:31;98013.00;;;12.10
15062;BMP180;7630;50.306;8.566;2023-04-07T18:44:33;98030.00;;;12.10
15062;BMP180;7630;50.306;8.566;2023-04-07T18:48:34;98028.00;;;11.60
15062;BMP180;7630;50.306;8.566;2023-04-07T18:52:36;98028.00;;;11.80
15062;BMP180;7630;50.306;8.566;2023-04-07T18:56:37;98039.00;;;11.10
15062;BMP180;7630;50.306;8.566;2023-04-07T19:00:39;98042.00;;;10.20
15062;BMP180;7630;50.306;8.566;2023-04-07T19:04:41;98045.00;;;10.50
15062;BMP180;7630;50.306;8.566;2023-04-07T19:08:42;98040.00;;;11.20
15062;BMP180;7630;50.306;8.566;2023-04-07T19:12:43;98046.00;;;11.50
15062;BMP180;7630;50.306;8.566;2023-04-07T19:16:45;98057.00;;;11.60
15062;BMP180;7630;50.306;8.566;2023-04-07T19:20:46;98059.00;;;11.90
15062;BMP180;7630;50.306;8.566;2023-04-07T19:24:47;98065.00;;;12.00
15062;BMP180;7630;50.306;8.566;2023-04-07T19:28:48;98065.00;;;11.30
15062;BMP180;7630;50.306;8.566;2023-04-07T19:32:50;98071.00;;;11.10
15062;BMP180;7630;50.306;8.566;2023-04-07T19:36:51;98067.00;;;11.40
15062;BMP180;7630;50.306;8.566;2023-04-07T19:40:52;98071.00;;;12.00
15062;BMP180;7630;50.306;8.566;2023-04-07T19:44:53;98069.00;;;11.70
15062;BMP180;7630;50.306;8.566;2023-04-07T19:48:58;98065.00;;;11.90
15062;BMP180;7630;50.306;8.566;2023-04-07T19:52:59;98071.00;;;11.60
15062;BMP180;7630;50.306;8.566;2023-04-07T19:57:00;98080.00;;;11.60
15062;BMP180;7630;50.306;8.566;2023-04-07T20:01:01;98071.00;;;11.10
15062;BMP180;7630;50.306;8.566;2023-04-07T20:05:04;98077.00;;;11.50
15062;BMP180;7630;50.306;8.566;2023-04-07T20:09:05;98079.00;;;11.20
15062;BMP180;7630;50.306;8.566;2023-04-07T20:13:07;98088.00;;;11.50
15062;BMP180;7630;50.306;8.566;2023-04-07T20:17:10;98088.00;;;11.60
15062;BMP180;7630;50.306;8.566;2023-04-07T20:21:12;97999.00;;;11.50
15062;BMP180;7630;50.306;8.566;2023-04-07T20:25:14;98101.00;;;11.40
15062;BMP180;7630;50.306;8.566;2023-04-07T20:29:15;98097.00;;;11.40
15062;BMP180;7630;50.306;8.566;2023-04-07T20:33:16;98102.00;;;11.60
15062;BMP180;7630;50.306;8.566;2023-04-07T20:37:18;98105.00;;;11.90
15062;BMP180;7630;50.306;8.566;2023-04-07T20:41:20;98110.00;;;11.60
15062;BMP180;7630;50.306;8.566;2023-04-07T20:45:23;98113.00;;;11.20
15062;BMP180;7630;50.306;8.566;2023-04-07T20:49:24;98105.00;;;11.50
15062;BMP180;7630;50.306;8.566;2023-04-07T20:53:25;98111.00;;;11.20
15062;BMP180;7630;50.306;8.566;2023-04-07T20:57:27;98118.00;;;11.30
15062;BMP180;7630;50.306;8.566;2023-04-07T21:01:28;98120.00;;;11.10
15062;BMP180;7630;50.306;8.566;2023-04-07T21:05:30;98118.00;;;11.30
15062;BMP180;7630;50.306;8.566;2023-04-07T21:09:31;98111.00;;;11.10
15062;BMP180;7630;50.306;8.566;2023-04-07T21:13:32;98107.00;;;10.90
15062;BMP180;7630;50.306;8.566;2023-04-07T21:17:33;98108.00;;;10.90
15062;BMP180;7630;50.306;8.566;2023-04-07T21:21:34;98107.00;;;10.70
15062;BMP180;7630;50.306;8.566;2023-04-07T21:25:36;98110.00;;;10.80
15062;BMP180;7630;50.306;8.566;2023-04-07T21:29:38;98110.00;;;10.60
15062;BMP180;7630;50.306;8.566;2023-04-07T21:33:41;98114.00;;;10.70
15062;BMP180;7630;50.306;8.566;2023-04-07T21:37:42;98114.00;;;10.50
15062;BMP180;7630;50.306;8.566;2023-04-07T21:41:43;98119.00;;;10.50
15062;BMP180;7630;50.306;8.566;2023-04-07T21:45:44;98113.00;;;10.30
15062;BMP180;7630;50.306;8.566;2023-04-07T21:49:46;98128.00;;;10.20
15062;BMP180;7630;50.306;8.566;2023-04-07T21:53:47;98123.00;;;10.30
15062;BMP180;7630;50.306;8.566;2023-04-07T21:57:49;98129.00;;;10.20
15062;BMP180;7630;50.306;8.566;2023-04-07T22:01:50;98135.00;;;10.00
15062;BMP180;7630;50.306;8.566;2023-04-07T22:05:51;98130.00;;;10.00
15062;BMP180;7630;50.306;8.566;2023-04-07T22:09:52;98131.00;;;9.80
15062;BMP180;7630;50.306;8.566;2023-04-07T22:13:53;98132.00;;;9.60
15062;BMP180;7630;50.306;8.566;2023-04-07T22:17:55;98138.00;;;9.60
15062;BMP180;7630;50.306;8.566;2023-04-07T22:21:57;98132.00;;;9.50
15062;BMP180;7630;50.306;8.566;2023-04-07T22:25:58;98145.00;;;9.30
15062;BMP180;7630;50.306;8.566;2023-04-07T22:30:01;98147.00;;;9.30
15062;BMP180;7630;50.306;8.566;2023-04-07T22:34:02;98152.00;;;9.40
15062;BMP180;7630;50.306;8.566;2023-04-07T22:38:03;98150.00;;;9.20
15062;BMP180;7630;50.306;8.566;2023-04-07T22:42:04;98152.00;;;8.90
15062;BMP180;7630;50.306;8.566;2023-04-07T22:46:05;98151.00;;;9.00
15062;BMP180;7630;50.306;8.566;2023-04-07T22:50:07;98156.00;;;9.20
15062;BMP180;7630;50.306;8.566;2023-04-07T22:54:08;98148.00;;;9.00
15062;BMP180;7630;50.306;8.566;2023-04-07T22:58:09;98149.00;;;9.00
15062;BMP180;7630;50.306;8.566;2023-04-07T23:02:10;98158.00;;;9.50
15062;BMP180;7630;50.306;8.566;2023-04-07T23:06:11;98174.00;;;9.60
15062;BMP180;7630;50.306;8.566;2023-04-07T23:10:14;98162.00;;;9.40
15062;BMP180;7630;50.306;8.566;2023-04-07T23:14:15;98177.00;;;9.10
15062;BMP180;7630;50.306;8.566;2023-04-07T23:18:16;98164.00;;;9.00
15062;BMP180;7630;50.306;8.566;2023-04-07T23:22:17;98182.00;;;8.40
15062;BMP180;7630;50.306;8.566;2023-04-07T23:26:19;98168.00;;;9.20
15062;BMP180;7630;50.306;8.566;2023-04-07T23:30:20;98173.00;;;9.30
15062;BMP180;7630;50.306;8.566;2023-04-07T23:34:21;98173.00;;;9.60
15062;BMP180;7630;50.306;8.566;2023-04-07T23:38:23;98183.00;;;9.90
15062;BMP180;7630;50.306;8.566;2023-04-07T23:42:24;98170.00;;;9.20
15062;BMP180;7630;50.306;8.566;2023-04-07T23:46:25;98177.00;;;8.90
15062;BMP180;7630;50.306;8.566;2023-04-07T23:50:29;98173.00;;;9.20
15062;BMP180;7630;50.306;8.566;2023-04-07T23:54:30;98175.00;;;9.20
15062;BMP180;7630;50.306;8.566;2023-04-07T23:58:32;98178.00;;;9.60
